Flughafen Wetterinformationen

LTBA 170120Z 36006KT 9999 FEW035 05/01 Q1031 NOSIG

VATSIM Feed

Card image cap

ATC Buchungen

Es wurde keine Position gebucht

Card image cap

Aktive Flugsicherung

Derzeit sind keine Fluglotsen Online

Blog

Read our latest news and get to know us better.